sensor_id;sensor_type;location;lat;lon;timestamp;P1;durP1;ratioP1;P2;durP2;ratioP2
67090;SDS011;54007;55.818;49.058;2022-08-24T07:39:01;44.60;;;13.55;;
67090;SDS011;54007;55.818;49.058;2022-08-24T07:41:27;196.97;;;47.13;;
67090;SDS011;54007;55.818;49.058;2022-08-24T07:43:53;181.02;;;46.13;;
67090;SDS011;54007;55.818;49.058;2022-08-24T07:46:19;151.20;;;41.77;;
67090;SDS011;54007;55.818;49.058;2022-08-24T07:48:44;153.20;;;40.77;;
67090;SDS011;54007;55.818;49.058;2022-08-24T07:51:11;93.85;;;26.75;;
67090;SDS011;54007;55.818;49.058;2022-08-24T07:53:36;135.53;;;36.77;;
67090;SDS011;54007;55.818;49.058;2022-08-24T07:56:02;125.10;;;36.77;;
67090;SDS011;54007;55.818;49.058;2022-08-24T07:58:28;104.20;;;30.72;;
67090;SDS011;54007;55.818;49.058;2022-08-24T08:00:54;113.92;;;36.25;;
67090;SDS011;54007;55.818;49.058;2022-08-24T08:03:19;98.67;;;33.70;;
67090;SDS011;54007;55.818;49.058;2022-08-24T08:05:46;88.25;;;31.25;;
67090;SDS011;54007;55.818;49.058;2022-08-24T08:08:11;88.70;;;31.67;;
67090;SDS011;54007;55.818;49.058;2022-08-24T08:10:37;94.22;;;31.00;;
67090;SDS011;54007;55.818;49.058;2022-08-24T08:13:03;92.78;;;30.10;;
67090;SDS011;54007;55.818;49.058;2022-08-24T08:15:29;64.73;;;23.00;;
67090;SDS011;54007;55.818;49.058;2022-08-24T08:17:55;81.37;;;27.48;;
67090;SDS011;54007;55.818;49.058;2022-08-24T08:20:20;81.77;;;26.77;;
67090;SDS011;54007;55.818;49.058;2022-08-24T08:22:46;67.03;;;23.83;;
67090;SDS011;54007;55.818;49.058;2022-08-24T08:25:30;65.90;;;23.40;;
67090;SDS011;54007;55.818;49.058;2022-08-24T08:27:56;60.17;;;23.17;;
67090;SDS011;54007;55.818;49.058;2022-08-24T08:30:22;54.88;;;21.90;;
67090;SDS011;54007;55.818;49.058;2022-08-24T08:32:48;57.85;;;21.85;;
67090;SDS011;54007;55.818;49.058;2022-08-24T08:35:14;50.93;;;19.90;;
67090;SDS011;54007;55.818;49.058;2022-08-24T08:37:40;53.55;;;20.48;;
67090;SDS011;54007;55.818;49.058;2022-08-24T08:40:07;54.70;;;21.12;;
67090;SDS011;54007;55.818;49.058;2022-08-24T08:42:36;55.05;;;20.05;;
67090;SDS011;54007;55.818;49.058;2022-08-24T08:45:14;49.10;;;19.43;;
67090;SDS011;54007;55.818;49.058;2022-08-24T08:50:24;40.33;;;17.73;;
67090;SDS011;54007;55.818;49.058;2022-08-24T08:55:32;41.80;;;18.73;;
67090;SDS011;54007;55.818;49.058;2022-08-24T08:57:58;42.08;;;19.20;;
67090;SDS011;54007;55.818;49.058;2022-08-24T09:00:23;19.45;;;9.93;;
67090;SDS011;54007;55.818;49.058;2022-08-24T09:08:26;18.73;;;9.03;;
67090;SDS011;54007;55.818;49.058;2022-08-24T09:10:51;27.90;;;12.63;;
67090;SDS011;54007;55.818;49.058;2022-08-24T09:16:03;18.55;;;8.78;;
67090;SDS011;54007;55.818;49.058;2022-08-24T09:50:14;13.33;;;7.60;;
67090;SDS011;54007;55.818;49.058;2022-08-24T09:52:56;9.95;;;7.33;;
67090;SDS011;54007;55.818;49.058;2022-08-24T09:55:31;12.68;;;7.87;;
67090;SDS011;54007;55.818;49.058;2022-08-24T10:00:30;12.70;;;7.80;;
67090;SDS011;54007;55.818;49.058;2022-08-24T10:03:07;15.30;;;8.10;;
67090;SDS011;54007;55.818;49.058;2022-08-24T10:08:02;10.82;;;7.20;;
67090;SDS011;54007;55.818;49.058;2022-08-24T10:11:10;14.60;;;8.53;;
67090;SDS011;54007;55.818;49.058;2022-08-24T10:16:01;21.90;;;17.05;;
67090;SDS011;54007;55.818;49.058;2022-08-24T10:18:23;15.20;;;7.33;;
67090;SDS011;54007;55.818;49.058;2022-08-24T10:20:48;11.23;;;6.70;;
67090;SDS011;54007;55.818;49.058;2022-08-24T10:26:00;10.58;;;6.45;;
67090;SDS011;54007;55.818;49.058;2022-08-24T10:31:04;8.93;;;6.55;;
67090;SDS011;54007;55.818;49.058;2022-08-24T10:33:48;12.58;;;7.50;;
67090;SDS011;54007;55.818;49.058;2022-08-24T10:44:15;12.40;;;8.30;;
67090;SDS011;54007;55.818;49.058;2022-08-24T10:46:51;13.03;;;7.62;;
67090;SDS011;54007;55.818;49.058;2022-08-24T10:49:32;12.63;;;7.17;;
67090;SDS011;54007;55.818;49.058;2022-08-24T10:54:36;11.70;;;6.65;;
67090;SDS011;54007;55.818;49.058;2022-08-24T10:57:06;12.82;;;7.25;;
67090;SDS011;54007;55.818;49.058;2022-08-24T11:02:05;12.60;;;7.10;;
67090;SDS011;54007;55.818;49.058;2022-08-24T11:04:30;12.78;;;6.37;;
67090;SDS011;54007;55.818;49.058;2022-08-24T11:07:09;14.45;;;6.87;;
67090;SDS011;54007;55.818;49.058;2022-08-24T11:12:20;13.63;;;8.47;;
67090;SDS011;54007;55.818;49.058;2022-08-24T11:14:40;13.03;;;7.72;;
67090;SDS011;54007;55.818;49.058;2022-08-24T11:17:14;14.93;;;7.60;;
67090;SDS011;54007;55.818;49.058;2022-08-24T11:19:35;14.43;;;8.53;;
67090;SDS011;54007;55.818;49.058;2022-08-24T11:22:03;10.47;;;6.90;;
67090;SDS011;54007;55.818;49.058;2022-08-24T11:24:34;13.10;;;7.28;;
67090;SDS011;54007;55.818;49.058;2022-08-24T11:26:54;15.75;;;8.10;;
67090;SDS011;54007;55.818;49.058;2022-08-24T11:29:18;12.83;;;7.10;;
67090;SDS011;54007;55.818;49.058;2022-08-24T11:31:46;11.50;;;7.15;;
67090;SDS011;54007;55.818;49.058;2022-08-24T11:34:15;14.13;;;7.83;;
67090;SDS011;54007;55.818;49.058;2022-08-24T11:36:39;145.20;;;52.58;;
67090;SDS011;54007;55.818;49.058;2022-08-24T11:41:52;193.47;;;57.08;;
67090;SDS011;54007;55.818;49.058;2022-08-24T11:46:42;382.65;;;116.67;;
67090;SDS011;54007;55.818;49.058;2022-08-24T11:51:35;384.02;;;126.15;;
67090;SDS011;54007;55.818;49.058;2022-08-24T11:58:55;329.57;;;107.52;;
67090;SDS011;54007;55.818;49.058;2022-08-24T12:01:31;68.20;;;24.23;;
67090;SDS011;54007;55.818;49.058;2022-08-24T12:03:58;300.07;;;101.02;;
67090;SDS011;54007;55.818;49.058;2022-08-24T12:06:29;293.50;;;106.87;;
67090;SDS011;54007;55.818;49.058;2022-08-24T12:08:54;279.38;;;97.75;;
67090;SDS011;54007;55.818;49.058;2022-08-24T12:11:30;26.33;;;11.57;;
67090;SDS011;54007;55.818;49.058;2022-08-24T12:16:26;221.03;;;79.00;;
67090;SDS011;54007;55.818;49.058;2022-08-24T12:21:26;224.90;;;80.90;;
67090;SDS011;54007;55.818;49.058;2022-08-24T12:23:52;16.53;;;9.80;;
67090;SDS011;54007;55.818;49.058;2022-08-24T12:28:47;15.38;;;8.10;;
67090;SDS011;54007;55.818;49.058;2022-08-24T12:31:18;13.13;;;7.50;;
67090;SDS011;54007;55.818;49.058;2022-08-24T12:33:43;15.10;;;8.43;;
67090;SDS011;54007;55.818;49.058;2022-08-24T12:36:12;13.05;;;7.72;;
67090;SDS011;54007;55.818;49.058;2022-08-24T12:38:37;13.55;;;6.90;;
67090;SDS011;54007;55.818;49.058;2022-08-24T12:41:02;15.55;;;7.58;;
67090;SDS011;54007;55.818;49.058;2022-08-24T12:46:12;15.85;;;8.18;;
67090;SDS011;54007;55.818;49.058;2022-08-24T12:51:23;14.47;;;8.57;;
67090;SDS011;54007;55.818;49.058;2022-08-24T12:53:58;36.00;;;15.70;;
67090;SDS011;54007;55.818;49.058;2022-08-24T13:01:36;44.45;;;37.08;;
67090;SDS011;54007;55.818;49.058;2022-08-24T13:04:12;18.80;;;9.50;;
67090;SDS011;54007;55.818;49.058;2022-08-24T13:06:43;41.73;;;19.40;;
67090;SDS011;54007;55.818;49.058;2022-08-24T13:09:05;10.08;;;7.25;;
67090;SDS011;54007;55.818;49.058;2022-08-24T13:11:30;16.17;;;7.77;;
67090;SDS011;54007;55.818;49.058;2022-08-24T13:19:11;56.47;;;25.83;;
67090;SDS011;54007;55.818;49.058;2022-08-24T13:21:37;18.75;;;9.43;;
67090;SDS011;54007;55.818;49.058;2022-08-24T13:26:44;14.60;;;7.33;;
67090;SDS011;54007;55.818;49.058;2022-08-24T13:29:10;15.53;;;8.97;;
67090;SDS011;54007;55.818;49.058;2022-08-24T13:31:36;22.95;;;13.05;;
67090;SDS011;54007;55.818;49.058;2022-08-24T13:39:05;16.80;;;9.70;;
67090;SDS011;54007;55.818;49.058;2022-08-24T13:43:58;19.75;;;11.08;;
67090;SDS011;54007;55.818;49.058;2022-08-24T13:49:00;28.10;;;12.88;;
67090;SDS011;54007;55.818;49.058;2022-08-24T14:02:02;13.48;;;8.68;;
67090;SDS011;54007;55.818;49.058;2022-08-24T14:06:55;25.07;;;12.40;;
67090;SDS011;54007;55.818;49.058;2022-08-24T14:17:36;19.90;;;11.97;;
67090;SDS011;54007;55.818;49.058;2022-08-24T14:25:18;16.77;;;8.40;;
67090;SDS011;54007;55.818;49.058;2022-08-24T14:28:20;18.63;;;8.90;;
67090;SDS011;54007;55.818;49.058;2022-08-24T14:35:24;39.13;;;19.37;;
67090;SDS011;54007;55.818;49.058;2022-08-24T14:40:32;18.82;;;10.18;;
67090;SDS011;54007;55.818;49.058;2022-08-24T14:42:58;17.67;;;10.20;;
67090;SDS011;54007;55.818;49.058;2022-08-24T14:45:42;17.17;;;9.88;;
67090;SDS011;54007;55.818;49.058;2022-08-24T14:48:14;23.12;;;10.78;;
67090;SDS011;54007;55.818;49.058;2022-08-24T14:50:42;23.47;;;10.40;;
67090;SDS011;54007;55.818;49.058;2022-08-24T14:53:06;21.57;;;10.45;;
67090;SDS011;54007;55.818;49.058;2022-08-24T14:56:18;35.88;;;16.25;;
67090;SDS011;54007;55.818;49.058;2022-08-24T15:52:34;25.53;;;13.33;;
67090;SDS011;54007;55.818;49.058;2022-08-24T15:53:50;28.87;;;13.90;;
67090;SDS011;54007;55.818;49.058;2022-08-24T15:56:23;33.92;;;15.00;;
67090;SDS011;54007;55.818;49.058;2022-08-24T15:58:47;29.85;;;13.53;;
67090;SDS011;54007;55.818;49.058;2022-08-24T16:03:58;33.02;;;14.73;;
67090;SDS011;54007;55.818;49.058;2022-08-24T16:09:09;37.77;;;16.00;;
67090;SDS011;54007;55.818;49.058;2022-08-24T16:11:35;41.10;;;17.48;;
67090;SDS011;54007;55.818;49.058;2022-08-24T16:13:59;34.98;;;17.52;;
67090;SDS011;54007;55.818;49.058;2022-08-24T16:16:32;41.07;;;16.97;;
67090;SDS011;54007;55.818;49.058;2022-08-24T16:18:56;36.83;;;18.15;;
67090;SDS011;54007;55.818;49.058;2022-08-24T16:21:22;32.23;;;17.90;;
67090;SDS011;54007;55.818;49.058;2022-08-24T16:23:46;33.27;;;17.30;;
67090;SDS011;54007;55.818;49.058;2022-08-24T16:26:25;38.35;;;18.48;;
67090;SDS011;54007;55.818;49.058;2022-08-24T16:28:49;42.43;;;18.73;;
67090;SDS011;54007;55.818;49.058;2022-08-24T16:34:21;47.13;;;21.10;;
67090;SDS011;54007;55.818;49.058;2022-08-24T16:36:42;49.50;;;19.75;;
67090;SDS011;54007;55.818;49.058;2022-08-24T16:39:08;41.10;;;19.35;;
67090;SDS011;54007;55.818;49.058;2022-08-24T16:41:34;39.43;;;20.53;;
67090;SDS011;54007;55.818;49.058;2022-08-24T16:43:59;48.45;;;20.68;;
67090;SDS011;54007;55.818;49.058;2022-08-24T16:46:25;52.78;;;22.17;;
67090;SDS011;54007;55.818;49.058;2022-08-24T16:48:51;56.10;;;22.30;;
67090;SDS011;54007;55.818;49.058;2022-08-24T16:51:17;55.85;;;26.48;;
67090;SDS011;54007;55.818;49.058;2022-08-24T16:53:43;53.80;;;25.37;;
67090;SDS011;54007;55.818;49.058;2022-08-24T16:56:09;58.38;;;27.75;;
67090;SDS011;54007;55.818;49.058;2022-08-24T16:58:35;57.58;;;29.55;;
67090;SDS011;54007;55.818;49.058;2022-08-24T17:01:01;84.47;;;38.00;;
67090;SDS011;54007;55.818;49.058;2022-08-24T17:03:27;76.57;;;39.45;;
67090;SDS011;54007;55.818;49.058;2022-08-24T20:02:23;41.80;;;23.10;;
67090;SDS011;54007;55.818;49.058;2022-08-24T20:04:49;48.33;;;24.05;;
67090;SDS011;54007;55.818;49.058;2022-08-24T20:07:15;43.77;;;22.53;;
67090;SDS011;54007;55.818;49.058;2022-08-24T20:09:41;44.93;;;24.10;;
67090;SDS011;54007;55.818;49.058;2022-08-24T20:12:07;60.95;;;25.57;;
67090;SDS011;54007;55.818;49.058;2022-08-24T20:14:33;57.75;;;23.65;;
67090;SDS011;54007;55.818;49.058;2022-08-24T20:16:58;49.50;;;23.20;;
67090;SDS011;54007;55.818;49.058;2022-08-24T20:19:25;57.38;;;23.25;;
67090;SDS011;54007;55.818;49.058;2022-08-24T20:21:50;59.88;;;23.95;;
67090;SDS011;54007;55.818;49.058;2022-08-24T20:24:16;52.90;;;23.00;;
67090;SDS011;54007;55.818;49.058;2022-08-24T20:26:43;51.28;;;23.18;;
67090;SDS011;54007;55.818;49.058;2022-08-24T20:29:08;48.10;;;23.07;;
67090;SDS011;54007;55.818;49.058;2022-08-24T20:31:34;41.53;;;23.05;;
67090;SDS011;54007;55.818;49.058;2022-08-24T20:34:00;47.33;;;23.07;;
67090;SDS011;54007;55.818;49.058;2022-08-24T20:36:27;43.87;;;22.87;;
67090;SDS011;54007;55.818;49.058;2022-08-24T20:38:52;40.45;;;22.82;;
67090;SDS011;54007;55.818;49.058;2022-08-24T20:41:18;42.67;;;23.67;;
67090;SDS011;54007;55.818;49.058;2022-08-24T20:43:44;43.40;;;23.15;;
67090;SDS011;54007;55.818;49.058;2022-08-24T20:46:10;45.55;;;23.27;;
67090;SDS011;54007;55.818;49.058;2022-08-24T20:48:36;50.35;;;22.80;;
67090;SDS011;54007;55.818;49.058;2022-08-24T20:51:01;50.30;;;22.60;;
67090;SDS011;54007;55.818;49.058;2022-08-24T20:53:28;46.90;;;22.02;;
67090;SDS011;54007;55.818;49.058;2022-08-24T20:55:54;53.40;;;22.15;;
67090;SDS011;54007;55.818;49.058;2022-08-24T20:58:20;51.60;;;23.27;;
67090;SDS011;54007;55.818;49.058;2022-08-24T21:00:45;51.88;;;23.02;;
67090;SDS011;54007;55.818;49.058;2022-08-24T21:03:11;55.08;;;23.50;;
67090;SDS011;54007;55.818;49.058;2022-08-24T21:05:37;47.70;;;21.25;;
67090;SDS011;54007;55.818;49.058;2022-08-24T21:08:03;57.93;;;22.30;;
67090;SDS011;54007;55.818;49.058;2022-08-24T21:10:29;49.95;;;22.30;;
67090;SDS011;54007;55.818;49.058;2022-08-24T21:12:55;50.70;;;20.97;;
67090;SDS011;54007;55.818;49.058;2022-08-24T21:15:21;49.37;;;20.63;;
67090;SDS011;54007;55.818;49.058;2022-08-24T21:17:49;40.17;;;20.45;;
67090;SDS011;54007;55.818;49.058;2022-08-24T21:20:16;36.88;;;19.75;;
67090;SDS011;54007;55.818;49.058;2022-08-24T21:22:41;42.85;;;20.57;;
67090;SDS011;54007;55.818;49.058;2022-08-24T21:25:08;39.03;;;20.43;;
67090;SDS011;54007;55.818;49.058;2022-08-24T21:27:34;34.35;;;20.52;;
67090;SDS011;54007;55.818;49.058;2022-08-24T21:30:00;37.67;;;20.12;;
67090;SDS011;54007;55.818;49.058;2022-08-24T21:32:25;39.40;;;20.65;;
67090;SDS011;54007;55.818;49.058;2022-08-24T21:35:10;36.60;;;20.77;;
67090;SDS011;54007;55.818;49.058;2022-08-24T21:37:36;37.35;;;21.60;;
67090;SDS011;54007;55.818;49.058;2022-08-24T21:40:02;40.40;;;21.70;;
67090;SDS011;54007;55.818;49.058;2022-08-24T21:42:28;36.35;;;21.65;;
67090;SDS011;54007;55.818;49.058;2022-08-24T21:44:54;41.60;;;22.40;;
67090;SDS011;54007;55.818;49.058;2022-08-24T21:47:19;38.73;;;22.40;;
67090;SDS011;54007;55.818;49.058;2022-08-24T21:49:45;44.67;;;23.12;;
67090;SDS011;54007;55.818;49.058;2022-08-24T21:52:11;42.15;;;23.73;;
67090;SDS011;54007;55.818;49.058;2022-08-24T21:54:37;43.53;;;22.97;;
67090;SDS011;54007;55.818;49.058;2022-08-24T21:57:04;44.58;;;23.22;;
67090;SDS011;54007;55.818;49.058;2022-08-24T21:59:29;43.10;;;22.32;;
67090;SDS011;54007;55.818;49.058;2022-08-24T22:01:55;42.90;;;23.50;;
67090;SDS011;54007;55.818;49.058;2022-08-24T22:04:21;49.90;;;22.73;;
67090;SDS011;54007;55.818;49.058;2022-08-24T22:06:47;43.65;;;22.65;;
67090;SDS011;54007;55.818;49.058;2022-08-24T22:09:13;51.58;;;23.35;;
67090;SDS011;54007;55.818;49.058;2022-08-24T22:11:40;42.90;;;22.93;;
67090;SDS011;54007;55.818;49.058;2022-08-24T22:14:05;41.13;;;23.07;;
67090;SDS011;54007;55.818;49.058;2022-08-24T22:16:31;46.63;;;22.50;;
67090;SDS011;54007;55.818;49.058;2022-08-24T22:18:57;49.30;;;24.40;;
67090;SDS011;54007;55.818;49.058;2022-08-24T22:21:24;48.37;;;23.33;;
67090;SDS011;54007;55.818;49.058;2022-08-24T22:23:55;60.12;;;26.85;;
67090;SDS011;54007;55.818;49.058;2022-08-24T22:26:21;53.23;;;26.33;;
67090;SDS011;54007;55.818;49.058;2022-08-24T22:28:47;55.12;;;26.70;;
67090;SDS011;54007;55.818;49.058;2022-08-24T22:31:19;59.63;;;27.50;;
67090;SDS011;54007;55.818;49.058;2022-08-24T22:33:44;60.78;;;28.62;;
67090;SDS011;54007;55.818;49.058;2022-08-24T22:36:11;66.87;;;29.07;;
67090;SDS011;54007;55.818;49.058;2022-08-24T22:38:36;67.22;;;28.30;;
67090;SDS011;54007;55.818;49.058;2022-08-24T22:41:02;57.93;;;28.23;;
67090;SDS011;54007;55.818;49.058;2022-08-24T22:43:28;66.02;;;28.32;;
67090;SDS011;54007;55.818;49.058;2022-08-24T22:45:54;67.82;;;29.27;;
67090;SDS011;54007;55.818;49.058;2022-08-24T22:48:20;67.20;;;29.95;;
67090;SDS011;54007;55.818;49.058;2022-08-24T22:50:46;63.57;;;27.90;;
67090;SDS011;54007;55.818;49.058;2022-08-24T22:53:12;56.88;;;27.98;;
67090;SDS011;54007;55.818;49.058;2022-08-24T22:55:38;59.27;;;28.00;;
67090;SDS011;54007;55.818;49.058;2022-08-24T22:58:04;54.30;;;27.30;;
67090;SDS011;54007;55.818;49.058;2022-08-24T23:00:30;56.65;;;27.17;;
67090;SDS011;54007;55.818;49.058;2022-08-24T23:02:56;60.17;;;27.22;;
67090;SDS011;54007;55.818;49.058;2022-08-24T23:05:22;60.05;;;27.55;;
67090;SDS011;54007;55.818;49.058;2022-08-24T23:07:48;67.63;;;26.37;;
67090;SDS011;54007;55.818;49.058;2022-08-24T23:10:14;57.67;;;27.00;;
67090;SDS011;54007;55.818;49.058;2022-08-24T23:12:39;53.98;;;27.13;;
67090;SDS011;54007;55.818;49.058;2022-08-24T23:15:06;55.97;;;26.27;;
67090;SDS011;54007;55.818;49.058;2022-08-24T23:17:31;55.75;;;25.08;;
67090;SDS011;54007;55.818;49.058;2022-08-24T23:19:57;55.38;;;25.65;;
67090;SDS011;54007;55.818;49.058;2022-08-24T23:22:28;53.80;;;25.77;;
67090;SDS011;54007;55.818;49.058;2022-08-24T23:24:52;55.57;;;25.40;;
67090;SDS011;54007;55.818;49.058;2022-08-24T23:27:19;54.05;;;25.43;;
67090;SDS011;54007;55.818;49.058;2022-08-24T23:29:45;58.85;;;25.17;;
67090;SDS011;54007;55.818;49.058;2022-08-24T23:32:11;55.40;;;25.23;;
67090;SDS011;54007;55.818;49.058;2022-08-24T23:34:36;57.97;;;25.73;;
67090;SDS011;54007;55.818;49.058;2022-08-24T23:37:02;47.50;;;24.92;;
67090;SDS011;54007;55.818;49.058;2022-08-24T23:39:28;49.50;;;24.60;;
67090;SDS011;54007;55.818;49.058;2022-08-24T23:41:54;48.63;;;24.98;;
67090;SDS011;54007;55.818;49.058;2022-08-24T23:44:22;55.77;;;23.87;;
67090;SDS011;54007;55.818;49.058;2022-08-24T23:46:46;57.17;;;26.15;;
67090;SDS011;54007;55.818;49.058;2022-08-24T23:49:13;59.50;;;24.23;;
67090;SDS011;54007;55.818;49.058;2022-08-24T23:51:38;55.80;;;23.30;;
67090;SDS011;54007;55.818;49.058;2022-08-24T23:54:04;50.15;;;24.45;;
67090;SDS011;54007;55.818;49.058;2022-08-24T23:56:32;56.68;;;23.25;;
67090;SDS011;54007;55.818;49.058;2022-08-24T23:59:00;56.45;;;25.05;;
